Time;durP1;ratioP1;P1;durP2;ratioP2;P2;SDS_P1;SDS_P2;PMS_P1;PMS_P2;Temp;Humidity;BMP_temperature;BMP_pressure;BME280_temperature;BME280_humidity;BME280_pressure;Samples;Min_cycle;Max_cycle;Signal;HPM_P1;HPM_P2
2022/07/15 00:00:34;;;;;;;1.98;0.20;;;;;;;20.36;47.49;102032.25;7384650;19;20027;-62
2022/07/15 00:03:02;;;;;;;0.63;0.20;;;;;;;20.34;47.68;102032.41;7388697;19;20022;-63
2022/07/15 00:05:31;;;;;;;1.15;0.20;;;;;;;20.34;47.74;102032.41;7384958;19;20018;-61
2022/07/15 00:08:00;;;;;;;2.95;0.20;;;;;;;20.29;47.74;102026.78;7386410;19;20520;-63
2022/07/15 00:10:28;;;;;;;2.05;0.25;;;;;;;20.23;47.95;102032.88;7385618;19;20014;-62
2022/07/15 00:12:57;;;;;;;0.80;0.13;;;;;;;20.18;48.36;102019.22;7386008;19;20021;-63
2022/07/15 00:15:27;;;;;;;1.63;0.20;;;;;;;20.16;48.84;102021.28;7384978;19;20026;-61
2022/07/15 00:17:55;;;;;;;1.80;0.30;;;;;;;20.14;48.54;102017.94;7384605;19;20119;-62
2022/07/15 00:20:22;;;;;;;1.70;0.25;;;;;;;20.15;48.63;102019.59;7382946;19;20018;-62
2022/07/15 00:22:49;;;;;;;1.67;0.10;;;;;;;20.16;48.61;102017.78;7385990;19;20042;-63
2022/07/15 00:25:17;;;;;;;2.25;0.10;;;;;;;20.18;48.45;102019.22;7384959;19;20006;-61
2022/07/15 00:27:55;;;;;;;1.15;0.20;;;;;;;20.16;48.53;102023.13;7386864;19;20022;-62
2022/07/15 00:30:23;;;;;;;2.58;0.20;;;;;;;20.13;48.95;102028.81;7382769;19;20023;-62
2022/07/15 00:32:51;;;;;;;1.45;0.20;;;;;;;20.12;48.99;102019.97;7387008;19;20024;-61
2022/07/15 00:35:18;;;;;;;0.93;0.20;;;;;;;20.11;48.60;102022.84;7384000;19;20015;-61
2022/07/15 00:37:46;;;;;;;1.30;0.20;;;;;;;20.07;48.65;102017.03;7385766;19;20354;-62
2022/07/15 00:40:13;;;;;;;3.08;0.30;;;;;;;20.07;49.01;102023.19;7384928;19;20022;-62
2022/07/15 00:42:46;;;;;;;0.65;0.20;;;;;;;20.06;49.07;102029.56;7385750;19;20022;-62
2022/07/15 00:45:20;;;;;;;4.20;0.20;;;;;;;20.06;49.05;102031.41;7384073;19;20015;-62
2022/07/15 00:47:52;;;;;;;1.48;0.20;;;;;;;19.98;49.14;102037.69;7384203;19;20037;-61
2022/07/15 00:50:20;;;;;;;1.85;0.20;;;;;;;19.93;49.46;102033.91;7385474;19;20347;-63
2022/07/15 00:53:12;;;;;;;0.68;0.17;;;;;;;19.87;49.45;102022.09;7383251;19;20011;-61
2022/07/15 00:55:44;;;;;;;1.35;0.20;;;;;;;19.80;49.71;102025.72;7381477;19;20424;-62
2022/07/15 00:58:16;;;;;;;1.13;0.20;;;;;;;19.77;49.64;102034.91;7385280;19;20014;-62
2022/07/15 01:00:45;;;;;;;4.03;0.20;;;;;;;19.72;50.08;102023.09;7382491;19;20077;-62
2022/07/15 01:03:13;;;;;;;2.80;0.20;;;;;;;19.68;50.14;102017.31;7385345;19;20025;-63
2022/07/15 01:05:41;;;;;;;0.40;0.10;;;;;;;19.66;50.02;102019.31;7383734;19;20047;-62
2022/07/15 01:08:10;;;;;;;2.25;0.20;;;;;;;19.65;50.81;102015.00;7382966;19;20090;-62
2022/07/15 01:10:39;;;;;;;1.58;0.30;;;;;;;19.62;50.93;102020.69;7383324;19;20462;-62
2022/07/15 01:13:06;;;;;;;1.58;0.20;;;;;;;19.58;51.17;102024.75;7384417;19;20025;-64
2022/07/15 01:15:33;;;;;;;3.63;0.20;;;;;;;19.58;51.07;102020.25;7382138;19;20752;-62
2022/07/15 01:18:02;;;;;;;3.22;0.25;;;;;;;19.54;51.33;102015.47;7385706;19;20427;-61
2022/07/15 01:20:30;;;;;;;3.08;0.30;;;;;;;19.51;51.68;102018.47;7384430;19;20086;-62
2022/07/15 01:22:59;;;;;;;1.27;0.20;;;;;;;19.50;51.53;102020.34;7384909;19;20017;-62
2022/07/15 01:25:27;;;;;;;1.35;0.22;;;;;;;19.45;51.79;102017.38;7383011;19;20562;-63
2022/07/15 01:27:54;;;;;;;1.33;0.20;;;;;;;19.45;51.64;102016.56;7384011;19;20014;-63
2022/07/15 01:30:21;;;;;;;0.80;0.20;;;;;;;19.41;51.77;102015.19;7382475;19;20029;-62
2022/07/15 01:32:48;;;;;;;3.08;0.22;;;;;;;19.35;52.10;102016.75;7392152;19;20020;-62
2022/07/15 01:35:15;;;;;;;2.83;0.20;;;;;;;19.30;51.97;102005.78;7389637;19;20395;-62
2022/07/15 01:37:41;;;;;;;2.00;0.20;;;;;;;19.27;52.24;102008.00;7389979;19;20097;-63
2022/07/15 01:40:09;;;;;;;0.73;0.20;;;;;;;19.25;52.40;102007.38;7386275;19;20017;-63
2022/07/15 01:42:36;;;;;;;1.30;0.20;;;;;;;19.20;52.65;102002.53;7387838;19;20659;-63
2022/07/15 01:45:06;;;;;;;4.15;0.20;;;;;;;19.19;53.04;102003.56;7390292;19;20019;-63
2022/07/15 01:47:40;;;;;;;2.13;0.20;;;;;;;19.13;53.16;102006.97;7390532;19;20515;-61
2022/07/15 01:50:08;;;;;;;1.42;0.20;;;;;;;19.12;53.25;102014.13;7390691;19;20015;-61
2022/07/15 01:52:35;;;;;;;2.08;0.20;;;;;;;19.10;53.34;102013.47;7391406;19;20031;-62
2022/07/15 01:55:04;;;;;;;2.47;0.20;;;;;;;19.11;53.98;102023.13;7388074;19;20479;-64
2022/07/15 01:57:31;;;;;;;0.70;0.20;;;;;;;19.09;53.72;102019.00;7390694;19;20074;-67
2022/07/15 01:59:58;;;;;;;2.53;0.65;;;;;;;19.05;53.75;102013.19;7390223;19;20563;-65
2022/07/15 02:02:25;;;;;;;1.10;0.20;;;;;;;19.05;54.12;102015.00;7389804;19;20021;-65
2022/07/15 02:04:52;;;;;;;2.03;0.20;;;;;;;19.00;53.81;102023.56;7389554;19;20034;-66
2022/07/15 02:07:19;;;;;;;0.82;0.10;;;;;;;18.95;54.10;102020.59;7387160;19;20007;-65
2022/07/15 02:09:46;;;;;;;2.38;0.20;;;;;;;18.98;54.41;102016.75;7390022;19;20021;-66
2022/07/15 02:12:13;;;;;;;1.23;0.20;;;;;;;18.94;54.80;102020.78;7388709;19;20430;-65
2022/07/15 02:14:41;;;;;;;1.75;0.20;;;;;;;18.94;54.79;102016.28;7389957;19;20010;-65
2022/07/15 02:17:08;;;;;;;2.15;0.30;;;;;;;18.93;54.75;102017.28;7389506;19;20026;-65
2022/07/15 02:19:35;;;;;;;2.20;0.20;;;;;;;18.90;54.79;102019.47;7391444;19;20015;-65
2022/07/15 02:22:02;;;;;;;3.13;0.30;;;;;;;18.83;55.30;102026.53;7388435;19;20021;-66
2022/07/15 02:24:29;;;;;;;2.60;0.50;;;;;;;18.79;55.39;102010.06;7389065;19;20021;-63
2022/07/15 02:26:55;;;;;;;3.17;0.57;;;;;;;18.77;55.50;102014.72;7388623;19;20351;-65
2022/07/15 02:29:22;;;;;;;1.92;0.30;;;;;;;18.74;55.76;102017.75;7390136;19;20015;-65
2022/07/15 02:31:49;;;;;;;7.28;0.50;;;;;;;18.73;55.79;102014.25;7387833;19;20369;-65
2022/07/15 02:34:16;;;;;;;1.55;0.20;;;;;;;18.74;55.83;102017.75;7388582;19;20027;-66
2022/07/15 02:36:43;;;;;;;3.13;0.40;;;;;;;18.74;56.16;102026.56;7387619;19;20373;-65
2022/07/15 02:39:10;;;;;;;1.40;0.20;;;;;;;18.74;56.16;102018.56;7386238;19;20022;-65
2022/07/15 02:41:37;;;;;;;2.25;0.30;;;;;;;18.70;56.25;102025.25;7388430;19;20491;-65
2022/07/15 02:44:05;;;;;;;2.65;0.30;;;;;;;18.69;56.46;102025.47;7389669;19;20029;-65
2022/07/15 02:46:32;;;;;;;1.35;0.43;;;;;;;18.64;56.64;102019.84;7389133;19;20447;-64
2022/07/15 02:48:59;;;;;;;1.00;0.20;;;;;;;18.63;56.74;102020.84;7390245;19;20102;-63
2022/07/15 02:51:26;;;;;;;2.70;0.40;;;;;;;18.58;57.01;102026.69;7387341;19;20041;-62
2022/07/15 02:53:53;;;;;;;0.80;0.20;;;;;;;18.56;57.23;102019.84;7388033;19;20017;-62
2022/07/15 02:56:20;;;;;;;1.20;0.20;;;;;;;18.48;57.40;102011.88;7388719;19;20035;-62
2022/07/15 02:58:48;;;;;;;1.13;0.20;;;;;;;18.44;57.79;102011.38;7388692;19;20011;-62
2022/07/15 03:01:15;;;;;;;1.23;0.20;;;;;;;18.42;58.04;102012.59;7390009;19;20507;-62
2022/07/15 03:03:43;;;;;;;3.90;0.22;;;;;;;18.39;58.20;102017.25;7388711;19;20029;-62
2022/07/15 03:06:11;;;;;;;3.08;0.35;;;;;;;18.39;58.13;102025.25;7387091;19;20479;-63
2022/07/15 03:08:38;;;;;;;1.50;0.25;;;;;;;18.37;58.22;102015.78;7387982;19;20152;-62
2022/07/15 03:11:07;;;;;;;2.80;0.70;;;;;;;18.32;58.28;102026.97;7387210;19;20026;-63
2022/07/15 03:13:34;;;;;;;2.70;0.35;;;;;;;18.29;58.58;102013.97;7388518;19;20014;-62
2022/07/15 03:16:01;;;;;;;2.70;0.20;;;;;;;18.32;58.56;102015.47;7384104;19;20407;-61
2022/07/15 03:18:28;;;;;;;4.07;0.40;;;;;;;18.32;58.19;102018.97;7388805;19;20014;-63
2022/07/15 03:20:55;;;;;;;4.90;0.30;;;;;;;18.35;58.39;102015.94;7386361;19;20018;-62
2022/07/15 03:23:22;;;;;;;2.83;0.30;;;;;;;18.35;58.48;102012.44;7388329;19;20674;-62
2022/07/15 03:25:49;;;;;;;1.83;0.22;;;;;;;18.36;58.81;102016.78;7386929;19;20022;-62
2022/07/15 03:28:16;;;;;;;5.25;0.43;;;;;;;18.35;58.44;102015.09;7387898;19;20021;-64
2022/07/15 03:30:42;;;;;;;1.08;0.20;;;;;;;18.33;58.69;102014.47;7386134;19;20021;-63
2022/07/15 03:33:09;;;;;;;5.03;0.40;;;;;;;18.32;58.76;102026.13;7386426;19;20641;-65
2022/07/15 03:35:36;;;;;;;1.33;0.20;;;;;;;18.29;59.01;102023.78;7385853;19;20031;-61
2022/07/15 03:38:04;;;;;;;2.22;0.40;;;;;;;18.21;59.24;102027.34;7387666;19;20342;-61
2022/07/15 03:40:31;;;;;;;2.30;0.43;;;;;;;18.23;59.23;102020.00;7383368;19;20018;-61
2022/07/15 03:42:57;;;;;;;4.53;0.30;;;;;;;18.19;59.50;102016.00;7387766;19;20486;-62
2022/07/15 03:45:24;;;;;;;2.40;0.20;;;;;;;18.19;59.39;102017.84;7385853;19;20423;-62
2022/07/15 03:47:51;;;;;;;3.65;0.30;;;;;;;18.19;59.44;102016.00;7388062;19;20175;-62
2022/07/15 03:50:18;;;;;;;2.70;0.20;;;;;;;18.21;59.72;102016.69;7387477;19;20734;-63
2022/07/15 03:52:45;;;;;;;1.73;0.20;;;;;;;18.23;59.43;102022.69;7385199;19;20184;-66
2022/07/15 03:55:12;;;;;;;2.72;0.30;;;;;;;18.25;59.53;102014.50;7383856;19;20027;-62
2022/07/15 03:57:39;;;;;;;1.33;0.20;;;;;;;18.23;59.44;102017.34;7387922;19;20094;-62
2022/07/15 04:00:07;;;;;;;1.15;0.30;;;;;;;18.23;59.53;102021.84;7384923;19;20031;-62
2022/07/15 04:02:34;;;;;;;1.13;0.30;;;;;;;18.22;59.62;102020.19;7385848;19;20018;-62
2022/07/15 04:05:01;;;;;;;0.80;0.40;;;;;;;18.17;59.90;102018.03;7385602;19;20396;-62
2022/07/15 04:07:28;;;;;;;5.38;0.30;;;;;;;18.19;59.84;102021.34;7384880;19;20029;-62
2022/07/15 04:09:55;;;;;;;3.00;0.22;;;;;;;18.18;59.97;102019.69;7386332;19;20028;-65
2022/07/15 04:12:22;;;;;;;2.08;0.68;;;;;;;18.20;60.00;102014.19;7386969;19;20436;-63
2022/07/15 04:14:48;;;;;;;2.95;0.32;;;;;;;18.20;59.86;102015.00;7384989;19;20085;-63
2022/07/15 04:17:15;;;;;;;2.55;0.30;;;;;;;18.23;59.88;102019.19;7385169;19;20070;-63
2022/07/15 04:19:42;;;;;;;2.65;0.25;;;;;;;18.22;59.86;102020.19;7387058;19;20010;-64
2022/07/15 04:22:09;;;;;;;1.77;0.70;;;;;;;18.24;59.90;102021.66;7385436;19;20038;-63
2022/07/15 04:24:36;;;;;;;3.88;0.40;;;;;;;18.19;59.89;102012.50;7384159;19;20704;-63
2022/07/15 04:27:03;;;;;;;2.72;0.30;;;;;;;18.21;60.11;102013.19;7384081;19;20018;-63
2022/07/15 04:29:30;;;;;;;3.33;0.20;;;;;;;18.17;59.99;102011.88;7385592;19;20014;-62
2022/07/15 04:31:57;;;;;;;3.10;0.30;;;;;;;18.14;60.33;102012.19;7383091;19;20449;-63
2022/07/15 04:34:24;;;;;;;5.10;0.22;;;;;;;18.15;60.06;102021.84;7386369;19;20086;-62
2022/07/15 04:36:51;;;;;;;1.92;0.40;;;;;;;18.15;60.31;102017.38;7383957;19;20462;-64
2022/07/15 04:39:18;;;;;;;1.75;0.30;;;;;;;18.12;60.12;102015.06;7381361;19;20542;-66
2022/07/15 04:41:44;;;;;;;3.67;0.28;;;;;;;18.11;60.27;102010.72;7385099;19;20016;-68
2022/07/15 04:44:11;;;;;;;4.70;0.47;;;;;;;18.15;61.59;102012.03;7383596;19;20093;-64
2022/07/15 04:46:38;;;;;;;3.25;0.30;;;;;;;18.18;60.47;102005.53;7385288;19;20017;-65
2022/07/15 04:51:50;;;;;;;3.03;0.30;;;;;;;18.18;60.25;102009.03;7380603;19;20505;-63
2022/07/15 04:54:18;;;;;;;1.98;0.20;;;;;;;18.18;60.43;102011.72;7384724;19;20010;-61
2022/07/15 04:56:45;;;;;;;1.13;0.20;;;;;;;18.16;60.76;102008.38;7384039;19;20014;-61
2022/07/15 04:59:11;;;;;;;1.05;0.20;;;;;;;18.13;60.50;102010.56;7384456;19;20499;-61
2022/07/15 05:01:38;;;;;;;2.92;0.40;;;;;;;18.09;60.47;102012.72;7385120;19;20027;-62
2022/07/15 05:04:05;;;;;;;2.45;0.20;;;;;;;18.09;60.73;102011.88;7385239;19;20014;-62
2022/07/15 05:06:32;;;;;;;1.23;0.20;;;;;;;18.04;60.91;102012.41;7382474;19;20522;-66
2022/07/15 05:08:59;;;;;;;2.83;0.20;;;;;;;18.00;60.80;102007.59;7383075;19;20367;-64
2022/07/15 05:11:26;;;;;;;1.88;0.30;;;;;;;18.02;61.08;102010.94;7383788;19;20557;-65
2022/07/15 05:13:53;;;;;;;3.05;0.30;;;;;;;17.97;61.01;102005.28;7383966;19;20006;-65
2022/07/15 05:16:20;;;;;;;3.10;0.82;;;;;;;17.90;61.26;102003.31;7382508;19;20416;-65
2022/07/15 05:18:50;;;;;;;5.10;0.32;;;;;;;17.87;61.71;102002.84;7382958;19;20038;-62
2022/07/15 05:21:18;;;;;;;5.32;0.50;;;;;;;17.85;61.44;102008.31;7382252;19;20014;-62
2022/07/15 05:23:51;;;;;;;3.15;0.30;;;;;;;17.80;61.81;102015.16;7384316;19;20134;-65
2022/07/15 05:26:38;;;;;;;2.10;0.30;;;;;;;17.76;61.78;102008.53;7382601;19;20015;-61
2022/07/15 05:29:11;;;;;;;;;;;;;;;17.76;62.26;102019.16;7382341;19;20754;-65
2022/07/15 05:31:37;;;;;;;10.75;0.50;;;;;;;17.75;62.34;102014.84;7381635;19;19930;-65
2022/07/15 05:34:04;;;;;;;3.70;0.40;;;;;;;17.78;62.08;102017.97;7384691;19;20018;-65
2022/07/15 05:36:31;;;;;;;2.83;0.30;;;;;;;17.78;62.21;102019.81;7378567;19;20019;-65
2022/07/15 05:38:59;;;;;;;2.15;0.20;;;;;;;17.76;62.04;102022.66;7381894;19;20022;-66
2022/07/15 05:41:26;;;;;;;2.58;0.30;;;;;;;17.74;62.25;102019.31;7383466;19;20082;-64
2022/07/15 05:43:53;;;;;;;3.67;0.38;;;;;;;17.75;62.32;102025.50;7383547;19;20017;-65
2022/07/15 05:46:20;;;;;;;4.03;0.20;;;;;;;17.75;62.42;102028.97;7383172;19;20015;-66
2022/07/15 05:48:50;;;;;;;1.48;0.38;;;;;;;17.77;62.39;102026.16;7383051;19;20118;-64
2022/07/15 05:51:20;;;;;;;;;;;;;;;17.80;62.39;102023.16;7382755;19;20034;-65
2022/07/15 05:53:46;;;;;;;1.48;0.20;;;;;;;17.85;62.99;102034.94;7382953;19;19926;-66
2022/07/15 05:56:13;;;;;;;1.60;0.40;;;;;;;17.84;62.50;102030.63;7381506;19;20022;-65
2022/07/15 05:58:41;;;;;;;2.95;0.32;;;;;;;17.87;62.61;102027.63;7382740;19;20508;-64
2022/07/15 06:01:09;;;;;;;4.43;0.40;;;;;;;17.89;62.17;102036.25;7381350;19;20015;-64
2022/07/15 06:03:36;;;;;;;3.47;0.35;;;;;;;17.93;62.17;102034.09;7384979;19;20505;-65
2022/07/15 06:06:06;;;;;;;1.67;0.50;;;;;;;17.93;62.44;102029.59;7382178;19;20042;-69
2022/07/15 06:08:33;;;;;;;2.30;0.30;;;;;;;17.94;61.87;102025.94;7382962;19;20090;-65
2022/07/15 06:11:00;;;;;;;2.88;0.30;;;;;;;17.96;62.31;102031.09;7380954;19;20018;-65
2022/07/15 06:13:27;;;;;;;4.78;0.28;;;;;;;18.00;62.38;102026.25;7383375;19;20692;-66
2022/07/15 06:15:54;;;;;;;3.13;0.32;;;;;;;18.02;62.04;102032.25;7377952;19;20018;-65
2022/07/15 06:18:21;;;;;;;1.38;0.20;;;;;;;18.05;61.99;102030.06;7391971;19;20131;-66
2022/07/15 06:20:48;;;;;;;3.25;0.30;;;;;;;18.09;61.96;102039.38;7389352;19;20036;-65
2022/07/15 06:23:15;;;;;;;4.07;0.30;;;;;;;18.14;61.69;102039.69;7391194;19;20010;-65
2022/07/15 06:25:42;;;;;;;3.67;0.40;;;;;;;18.19;61.82;102047.16;7388474;19;20507;-66
2022/07/15 06:28:09;;;;;;;1.88;0.20;;;;;;;18.27;61.99;102049.81;7390042;19;20097;-66
2022/07/15 06:30:36;;;;;;;4.68;0.38;;;;;;;18.36;61.53;102041.59;7386392;19;20033;-64
2022/07/15 06:33:03;;;;;;;1.88;0.30;;;;;;;18.48;61.36;102042.03;7391083;19;20122;-64
2022/07/15 06:35:30;;;;;;;1.88;0.22;;;;;;;18.52;60.83;102035.34;7387491;19;20077;-66
2022/07/15 06:37:57;;;;;;;3.42;0.30;;;;;;;18.57;61.02;102038.34;7388616;19;20034;-65
2022/07/15 06:40:24;;;;;;;3.03;0.30;;;;;;;18.63;61.28;102036.81;7388291;19;20022;-65
2022/07/15 06:42:51;;;;;;;7.30;0.40;;;;;;;18.66;60.77;102034.63;7388806;19;20027;-64
2022/07/15 06:45:18;;;;;;;1.85;0.30;;;;;;;18.67;60.47;102033.63;7389818;19;20029;-66
2022/07/15 06:47:44;;;;;;;2.08;0.50;;;;;;;18.72;60.13;102030.44;7388553;19;20109;-65
2022/07/15 06:50:11;;;;;;;4.47;1.50;;;;;;;18.76;59.94;102029.91;7387074;19;20014;-66
2022/07/15 06:52:38;;;;;;;3.28;1.15;;;;;;;18.79;59.48;102039.41;7387707;19;20355;-65
2022/07/15 06:55:06;;;;;;;1.55;0.20;;;;;;;18.84;59.70;102041.53;7385496;19;20130;-65
2022/07/15 06:57:33;;;;;;;2.65;0.30;;;;;;;18.89;60.17;102044.50;7388818;19;20025;-66
2022/07/15 07:00:01;;;;;;;3.20;0.30;;;;;;;18.91;60.21;102039.81;7387436;19;20014;-66
2022/07/15 07:02:28;;;;;;;5.53;0.40;;;;;;;18.93;59.26;102043.97;7385517;19;20538;-65
2022/07/15 07:04:55;;;;;;;1.35;0.20;;;;;;;18.93;59.30;102043.97;7385940;19;20014;-66
2022/07/15 07:07:22;;;;;;;2.90;0.20;;;;;;;18.97;58.00;102044.44;7387067;19;20530;-66
2022/07/15 07:09:49;;;;;;;0.65;0.10;;;;;;;19.00;57.94;102039.56;7384919;19;20010;-66
2022/07/15 07:12:16;;;;;;;3.50;0.20;;;;;;;19.01;57.69;102037.72;7385564;19;20018;-66
2022/07/15 07:14:43;;;;;;;1.50;0.20;;;;;;;19.02;57.97;102031.38;7387987;19;20554;-66
2022/07/15 07:17:10;;;;;;;3.80;0.40;;;;;;;19.03;57.75;102041.06;7383813;19;20039;-66
2022/07/15 07:19:37;;;;;;;3.50;0.20;;;;;;;19.06;58.66;102030.84;7388612;19;20036;-65
2022/07/15 07:22:04;;;;;;;1.45;0.20;;;;;;;19.07;57.93;102027.19;7387533;19;20101;-65
2022/07/15 07:24:31;;;;;;;0.82;0.20;;;;;;;19.12;57.85;102024.81;7385969;19;20036;-66
2022/07/15 07:26:58;;;;;;;1.10;0.20;;;;;;;19.17;57.66;102022.44;7384183;19;20033;-65
2022/07/15 07:29:32;;;;;;;1.98;0.38;;;;;;;19.23;57.09;102021.72;7385040;19;20499;-65
2022/07/15 07:31:59;;;;;;;1.25;0.20;;;;;;;19.30;57.00;102024.47;7386077;19;20452;-65
2022/07/15 07:34:26;;;;;;;1.17;0.20;;;;;;;19.32;56.64;102032.31;7385531;19;20014;-66
2022/07/15 07:36:53;;;;;;;1.73;0.20;;;;;;;19.32;57.04;102021.63;7384459;19;20335;-65
2022/07/15 07:39:20;;;;;;;3.80;0.38;;;;;;;19.37;57.01;102029.94;7384267;19;20085;-66
2022/07/15 07:41:49;;;;;;;1.38;0.20;;;;;;;19.44;56.93;102022.88;7387486;19;20032;-66
2022/07/15 07:44:16;;;;;;;3.38;0.20;;;;;;;19.52;56.69;102018.31;7383945;19;20018;-66
2022/07/15 07:46:43;;;;;;;2.88;0.20;;;;;;;19.60;56.31;102020.91;7386579;19;20018;-65
2022/07/15 07:49:12;;;;;;;1.23;0.20;;;;;;;19.72;56.48;102031.13;7388743;19;20041;-66
2022/07/15 07:51:59;;;;;;;8.13;0.20;;;;;;;19.87;54.47;102026.59;7385143;19;20018;-65
2022/07/15 07:54:26;;;;;;;1.75;0.20;;;;;;;19.99;55.21;102033.16;7383671;19;20015;-66
2022/07/15 07:56:53;;;;;;;3.58;0.20;;;;;;;20.06;54.21;102018.06;7384246;19;20031;-66
2022/07/15 07:59:21;;;;;;;2.53;0.30;;;;;;;20.14;54.35;102017.13;7385677;19;20071;-66
2022/07/15 08:01:49;;;;;;;1.40;0.20;;;;;;;20.23;54.65;102022.16;7385938;19;20008;-65
2022/07/15 08:04:16;;;;;;;3.35;0.30;;;;;;;20.31;53.98;102022.13;7386002;19;20011;-65
2022/07/15 08:06:43;;;;;;;2.50;0.30;;;;;;;20.38;53.86;102012.31;7386120;19;20006;-65
2022/07/15 08:09:10;;;;;;;4.03;0.30;;;;;;;20.39;52.85;102018.50;7384203;19;20556;-65
2022/07/15 08:11:37;;;;;;;1.42;0.20;;;;;;;20.36;52.63;102010.84;7383686;19;20017;-65
2022/07/15 08:14:04;;;;;;;3.13;0.20;;;;;;;20.37;53.04;102023.19;7384948;19;20121;-65
2022/07/15 08:16:33;;;;;;;3.72;0.28;;;;;;;20.38;52.88;102017.66;7384219;19;20026;-67
2022/07/15 08:19:00;;;;;;;5.07;0.45;;;;;;;20.40;51.95;102012.13;7386014;19;20018;-65
2022/07/15 08:21:28;;;;;;;2.55;0.30;;;;;;;20.37;52.16;102012.50;7382740;19;20039;-65
2022/07/15 08:23:54;;;;;;;2.55;0.20;;;;;;;20.33;51.98;102014.72;7386557;19;20613;-65
2022/07/15 08:26:23;;;;;;;2.80;0.30;;;;;;;20.30;52.79;102008.91;7385671;19;20018;-63
2022/07/15 08:28:51;;;;;;;2.47;0.20;;;;;;;20.28;52.58;102008.25;7383800;19;20014;-63
2022/07/15 08:31:35;;;;;;;3.70;0.20;;;;;;;20.27;52.50;101999.38;7386070;19;20024;-63
2022/07/15 08:34:03;;;;;;;3.47;0.20;;;;;;;20.32;53.47;102009.53;7382431;19;20042;-63
2022/07/15 08:36:31;;;;;;;1.88;0.22;;;;;;;20.37;52.99;102007.97;7384736;19;20010;-63
2022/07/15 08:38:58;;;;;;;1.88;0.20;;;;;;;20.42;52.39;101999.38;7382064;19;20026;-62
2022/07/15 08:41:25;;;;;;;2.63;0.30;;;;;;;20.44;51.92;101992.84;7384339;19;20010;-62
2022/07/15 08:43:51;;;;;;;2.08;0.20;;;;;;;20.49;52.40;101992.28;7383201;19;20038;-63
2022/07/15 08:46:20;;;;;;;1.85;0.30;;;;;;;20.55;52.56;101990.69;7385631;19;20015;-62
2022/07/15 08:48:51;;;;;;;1.42;0.10;;;;;;;20.58;51.03;101993.81;7385197;19;20026;-64
2022/07/15 08:51:24;;;;;;;2.80;0.20;;;;;;;20.62;50.80;101987.06;7384210;19;20019;-63
2022/07/15 08:53:52;;;;;;;2.83;0.40;;;;;;;20.67;50.95;101984.63;7383891;19;20038;-63
2022/07/15 08:56:19;;;;;;;3.75;0.30;;;;;;;20.70;51.42;101980.75;7383202;19;20023;-64
2022/07/15 08:58:50;;;;;;;3.70;0.20;;;;;;;20.76;51.46;101982.69;7383846;19;20022;-63
2022/07/15 09:01:30;;;;;;;1.23;0.30;;;;;;;20.83;50.21;101975.53;7385730;19;20093;-63
2022/07/15 09:03:58;;;;;;;3.88;0.20;;;;;;;20.91;48.41;101984.28;7385867;19;20517;-63
2022/07/15 09:06:35;;;;;;;1.30;0.20;;;;;;;20.94;48.26;101972.34;7384250;19;20085;-62
2022/07/15 09:09:27;;;;;;;2.50;0.20;;;;;;;20.94;47.55;101969.66;7383810;19;20138;-62
2022/07/15 09:12:08;;;;;;;3.35;0.20;;;;;;;20.96;47.56;101961.44;7383566;19;20099;-62
2022/07/15 09:14:44;;;;;;;1.70;0.20;;;;;;;20.98;49.13;101965.56;7384488;19;20014;-62
2022/07/15 09:17:12;;;;;;;2.03;0.20;;;;;;;21.00;47.93;101960.88;7383610;19;20466;-62
2022/07/15 09:19:59;;;;;;;3.63;0.20;;;;;;;21.07;47.98;101960.94;7386292;19;20271;-61
2022/07/15 09:22:30;;;;;;;8.48;0.90;;;;;;;21.13;48.19;101952.94;7384361;19;20014;-63
2022/07/15 09:25:07;;;;;;;1.63;0.38;;;;;;;21.18;47.02;101955.88;7380772;19;20182;-61
2022/07/15 09:27:38;;;;;;;3.85;0.30;;;;;;;21.20;47.04;101956.53;7381891;19;20014;-63
2022/07/15 09:36:05;;;;;;;2.30;0.30;;;;;;;21.59;45.81;101969.34;7382828;19;20029;-63
2022/07/15 09:38:45;;;;;;;0.98;0.20;;;;;;;21.67;44.99;101963.84;7382803;19;20399;-62
2022/07/15 09:41:25;;;;;;;1.65;0.10;;;;;;;21.72;45.49;101950.69;7380525;19;20027;-61
2022/07/15 09:43:58;;;;;;;10.00;2.67;;;;;;;21.82;45.97;101950.31;7382325;19;20020;-63
2022/07/15 09:46:28;;;;;;;2.03;0.52;;;;;;;21.96;45.24;101951.22;7383104;19;20491;-62
2022/07/15 09:48:55;;;;;;;2.75;0.30;;;;;;;22.08;45.19;101949.63;7384868;19;20115;-63
2022/07/15 09:51:23;;;;;;;1.80;0.20;;;;;;;22.20;44.20;101953.38;7384087;19;20018;-63
2022/07/15 09:53:50;;;;;;;3.35;0.30;;;;;;;22.29;44.54;101952.19;7390677;19;20027;-62
2022/07/15 09:56:22;;;;;;;2.25;0.20;;;;;;;22.38;44.64;101942.09;7389896;19;20062;-61
2022/07/15 09:58:50;;;;;;;1.83;0.28;;;;;;;22.48;43.88;101943.34;7388687;19;20021;-62
2022/07/15 10:01:18;;;;;;;1.85;0.20;;;;;;;22.56;43.60;101942.31;7391125;19;20018;-63
2022/07/15 10:03:45;;;;;;;2.65;0.50;;;;;;;22.62;43.75;101928.09;7391292;19;20017;-62
2022/07/15 10:06:14;;;;;;;1.90;0.38;;;;;;;22.66;44.32;101934.69;7389314;19;20575;-63
2022/07/15 10:08:47;;;;;;;1.25;0.30;;;;;;;22.72;44.31;101936.59;7390915;19;20439;-62
2022/07/15 10:11:15;;;;;;;1.90;0.30;;;;;;;22.79;43.71;101929.38;7388541;19;20461;-62
2022/07/15 10:14:05;;;;;;;3.55;0.20;;;;;;;22.91;43.03;101932.25;7390340;19;20016;-64
2022/07/15 10:16:45;;;;;;;3.33;1.00;;;;;;;22.97;42.56;101940.31;7389193;19;20003;-62
2022/07/15 10:19:23;;;;;;;0.98;0.20;;;;;;;22.95;43.02;101925.47;7391549;19;20014;-61
2022/07/15 10:22:29;;;;;;;1.00;0.20;;;;;;;22.98;42.41;101916.97;7387731;19;20404;-62
2022/07/15 10:24:59;;;;;;;2.28;0.30;;;;;;;23.02;42.95;101923.56;7388286;19;20007;-61
2022/07/15 10:27:38;;;;;;;1.25;0.20;;;;;;;23.11;43.10;101922.31;7387624;19;20023;-63
2022/07/15 10:30:09;;;;;;;1.38;0.20;;;;;;;23.22;42.91;101919.00;7389574;19;20044;-62
2022/07/15 10:33:03;;;;;;;0.90;0.10;;;;;;;23.27;42.80;101911.16;7389158;19;20010;-66
2022/07/15 10:35:41;;;;;;;4.75;0.20;;;;;;;23.31;42.24;101916.94;7387285;19;20793;-65
2022/07/15 10:38:20;;;;;;;2.10;0.40;;;;;;;23.38;41.65;101918.56;7387978;19;20018;-66
2022/07/15 10:41:01;;;;;;;2.45;0.30;;;;;;;23.49;42.11;101916.31;7387590;19;20017;-64
2022/07/15 10:43:44;;;;;;;0.70;0.20;;;;;;;23.56;41.74;101922.50;7390826;19;20064;-65
2022/07/15 10:46:17;;;;;;;0.57;0.20;;;;;;;23.61;41.39;101923.50;7386098;19;20015;-65
2022/07/15 10:48:57;;;;;;;3.58;0.47;;;;;;;23.60;40.38;101921.84;7387364;19;20020;-64
2022/07/15 10:51:36;;;;;;;6.05;1.67;;;;;;;23.58;40.76;101925.78;7387260;19;20019;-65
2022/07/15 10:54:06;;;;;;;5.88;0.70;;;;;;;23.53;41.30;101921.03;7388504;19;20344;-65
2022/07/15 10:56:48;;;;;;;2.67;0.40;;;;;;;23.54;42.12;101924.56;7386116;19;20614;-66
2022/07/15 10:59:19;;;;;;;1.97;0.30;;;;;;;23.57;42.62;101924.16;7386881;19;20014;-63
2022/07/15 11:02:07;;;;;;;1.17;0.20;;;;;;;23.60;41.64;101921.03;7388549;19;20339;-62
2022/07/15 11:04:34;;;;;;;1.05;0.20;;;;;;;23.61;40.78;101917.31;7386958;19;20625;-62
2022/07/15 11:09:51;;;;;;;1.10;0.20;;;;;;;23.66;40.81;101912.13;7385962;19;20040;-62
2022/07/15 11:12:28;;;;;;;3.60;0.20;;;;;;;23.62;41.42;101900.16;7387373;19;20018;-63
2022/07/15 11:15:10;;;;;;;1.98;0.20;;;;;;;23.64;41.21;101908.81;7388399;19;20011;-63
2022/07/15 11:17:41;;;;;;;2.25;0.10;;;;;;;23.63;39.59;101897.22;7386325;19;20006;-63
2022/07/15 11:20:17;;;;;;;1.17;0.20;;;;;;;23.65;39.71;101894.34;7387278;19;20011;-62
2022/07/15 11:22:47;;;;;;;0.90;0.20;;;;;;;23.61;39.38;101893.13;7387394;19;20007;-62
2022/07/15 11:25:36;;;;;;;1.33;0.10;;;;;;;23.60;38.62;101892.28;7387176;19;20018;-62
2022/07/15 11:28:12;;;;;;;0.77;0.10;;;;;;;23.55;39.31;101877.84;7388631;19;20706;-63
2022/07/15 11:30:40;;;;;;;1.77;0.10;;;;;;;23.54;39.28;101871.63;7382992;19;20039;-62
2022/07/15 11:33:11;;;;;;;4.00;0.40;;;;;;;23.58;39.13;101880.09;7388765;19;20102;-62
2022/07/15 11:35:49;;;;;;;2.75;0.20;;;;;;;23.59;39.44;101871.00;7386251;19;20397;-63
2022/07/15 11:38:19;;;;;;;1.77;0.30;;;;;;;23.66;39.60;101866.44;7384294;19;20035;-63
2022/07/15 11:46:22;;;;;;;1.83;0.20;;;;;;;23.70;39.78;101857.72;7386321;19;20014;-64
2022/07/15 11:48:52;;;;;;;1.30;0.28;;;;;;;23.69;40.52;101869.50;7387899;19;20031;-63
2022/07/15 11:51:30;;;;;;;5.32;0.43;;;;;;;23.77;40.76;101871.13;7385952;19;20036;-62
2022/07/15 11:53:58;;;;;;;15.18;0.60;;;;;;;23.85;40.38;101860.13;7386347;19;20706;-62